Cetus Star — 9HYP7 — position and weather

sailwx.info

Track history (hours):
 
Tides and Currents Weather Stations Pressure Air Temp Water Temp Dewpoint Dewpoint Depression Visibility Wind Speed Wind Dir Waves Ship Positions

Cetus Star

Last reported at 2017-Nov-20 00:30 UTC. Time now 2017-Nov-23 18:51 UTC.
Position N 56°00' E 016°22'.

Length 175 m; draft 9.7 m.

Type: Cargo ship. MMSI: 215720000.

Date/timePositionNaut miles runAvg speedWind from/ knotsBaromVisibWave heightAir tempDewpointWater temp
2017-Nov-20 00:30N 56°00' E 016°22'612.1
2017-Nov-20 00:00N 56°03' E 016°31'612.0
2017-Nov-19 23:30N 56°06' E 016°40'611.9
2017-Nov-19 23:00N 56°10' E 016°49'28811.2
2017-Nov-18 21:14N 59°36' E 023°06'3 9.9
2017-Nov-18 20:57N 59°37' E 023°11'5 9.7
2017-Nov-18 20:27N 59°38' E 023°20'4 9.6
2017-Nov-18 20:00N 59°39' E 023°29'5 9.8
2017-Nov-18 19:30N 59°40' E 023°38'5 9.9
2017-Nov-18 19:00N 59°41' E 023°48'510.0
2017-Nov-18 18:30N 59°42' E 023°57'610.0
2017-Nov-18 17:56N 59°44' E 024°08'511.6
2017-Nov-18 17:30N 59°45' E 024°18'510.1
2017-Nov-18 17:00N 59°46' E 024°28'4 8.6
2017-Nov-18 16:30N 59°44' E 024°35'611.5
2017-Nov-18 16:01N 59°40' E 024°44'510.3
2017-Nov-18 15:30N 59°36' E 024°51'5 9.3
2017-Nov-18 15:00N 59°33' E 024°57'3 5.7
2017-Nov-18 14:30N 59°30' E 024°58'0 0.0
2017-Nov-18 13:59N 59°30' E 024°58'0 0.0
2017-Nov-18 13:29N 59°30' E 024°58'0 0.0
2017-Nov-18 12:59N 59°30' E 024°58'0 0.0
2017-Nov-18 12:28N 59°30' E 024°58'0 0.0
2017-Nov-18 12:00N 59°30' E 024°58'0 0.0
2017-Nov-18 11:29N 59°30' E 024°58'0 0.0
2017-Nov-18 10:59N 59°30' E 024°58'0 0.0
2017-Nov-18 10:31N 59°30' E 024°58'0 0.0
2017-Nov-18 09:59N 59°30' E 024°58'0 0.0
2017-Nov-18 09:29N 59°30' E 024°58'0 0.0
2017-Nov-18 08:59N 59°30' E 024°58'0 0.0
2017-Nov-18 08:29N 59°30' E 024°58'0 0.0
2017-Nov-18 07:59N 59°30' E 024°58'0 0.0
2017-Nov-18 07:29N 59°30' E 024°58'0 0.0
2017-Nov-18 06:59N 59°30' E 024°58'0 0.0
2017-Nov-18 06:29N 59°30' E 024°58'0 0.0
2017-Nov-18 05:59N 59°30' E 024°58'0 0.0
2017-Nov-18 05:29N 59°30' E 024°58'0 0.0
2017-Nov-18 04:59N 59°30' E 024°58'0 0.0
2017-Nov-18 04:29N 59°30' E 024°58'0 0.0
2017-Nov-18 03:59N 59°30' E 024°58'0 0.0
2017-Nov-18 03:29N 59°30' E 024°58'0 0.0
2017-Nov-18 02:59N 59°30' E 024°58'0 0.0
2017-Nov-18 02:29N 59°30' E 024°58'0 0.0
2017-Nov-18 01:59N 59°30' E 024°58'0 0.0
2017-Nov-18 01:29N 59°30' E 024°58'0 0.0
2017-Nov-18 00:59N 59°30' E 024°58'0 0.0
2017-Nov-18 00:29N 59°30' E 024°58'0 0.0
2017-Nov-17 23:59N 59°30' E 024°58'0 0.0
2017-Nov-17 23:29N 59°30' E 024°58'0 0.0
2017-Nov-17 22:59N 59°30' E 024°58'0 0.0
2017-Nov-17 22:29N 59°30' E 024°58'0 0.0
2017-Nov-17 21:59N 59°30' E 024°58'0 0.0
2017-Nov-17 21:30N 59°30' E 024°58'0 0.0
2017-Nov-17 20:59N 59°30' E 024°58'0 0.0
2017-Nov-17 20:29N 59°30' E 024°58'0 0.0
2017-Nov-17 19:59N 59°30' E 024°58'0 0.0
2017-Nov-17 19:29N 59°30' E 024°58'0 0.0
2017-Nov-17 19:00N 59°30' E 024°58'0 0.0
2017-Nov-17 18:29N 59°30' E 024°58'0 0.0
2017-Nov-17 17:59N 59°30' E 024°58'0 0.0
2017-Nov-17 17:29N 59°30' E 024°58'0 0.0
2017-Nov-17 16:59N 59°30' E 024°58'0 0.0
2017-Nov-17 16:29N 59°30' E 024°58'0 0.0
2017-Nov-17 15:59N 59°30' E 024°58'0 0.0
2017-Nov-17 15:29N 59°30' E 024°58'0 0.0
2017-Nov-17 14:59N 59°30' E 024°58'0 0.0
2017-Nov-17 14:29N 59°30' E 024°58'0 0.0
2017-Nov-17 13:59N 59°30' E 024°58'0 0.0
2017-Nov-17 13:29N 59°30' E 024°58'0 0.0
2017-Nov-17 12:59N 59°30' E 024°58'0 0.0
2017-Nov-17 12:29N 59°30' E 024°58'0 0.0
2017-Nov-17 11:59N 59°30' E 024°58'0 0.0
2017-Nov-17 11:29N 59°30' E 024°58'0 0.0
2017-Nov-17 10:59N 59°30' E 024°58'0 0.0
2017-Nov-17 10:29N 59°30' E 024°58'0 0.0
2017-Nov-17 09:59N 59°30' E 024°58'0 0.0
2017-Nov-17 09:29N 59°30' E 024°58'0 0.0
2017-Nov-17 08:59N 59°30' E 024°58'0 0.0
2017-Nov-17 08:29N 59°30' E 024°58'0 0.0
2017-Nov-17 07:59N 59°30' E 024°58'0 0.0
2017-Nov-17 07:29N 59°30' E 024°58'0 0.0
2017-Nov-17 06:59N 59°30' E 024°58'0 0.0
2017-Nov-17 06:29N 59°30' E 024°58'0 0.0
2017-Nov-17 05:59N 59°30' E 024°58'0 0.0
2017-Nov-17 05:29N 59°30' E 024°58'0 0.0
2017-Nov-17 04:59N 59°30' E 024°58'0 0.0
2017-Nov-17 04:29N 59°30' E 024°58'0 0.0
2017-Nov-17 03:59N 59°30' E 024°58'0 0.0
2017-Nov-17 03:29N 59°30' E 024°58'0 0.0
2017-Nov-17 02:59N 59°30' E 024°58'0 0.0
2017-Nov-17 02:29N 59°30' E 024°58'0 0.0
2017-Nov-17 01:59N 59°30' E 024°58'0 0.0
2017-Nov-17 01:29N 59°30' E 024°58'0 0.0
2017-Nov-17 00:59N 59°30' E 024°58'0 0.0
2017-Nov-17 00:29N 59°30' E 024°58'0 0.0
2017-Nov-16 23:59N 59°30' E 024°58'0 0.0
2017-Nov-16 23:29N 59°30' E 024°58'0 0.0
2017-Nov-16 22:59N 59°30' E 024°58'0 0.0
2017-Nov-16 22:29N 59°30' E 024°58'0 0.0
2017-Nov-16 21:59N 59°30' E 024°58'0 0.0
2017-Nov-16 21:29N 59°30' E 024°58'0 0.0
2017-Nov-16 20:59N 59°30' E 024°58'0 0.0
2017-Nov-16 20:29N 59°30' E 024°58'0 0.0
2017-Nov-16 19:59N 59°30' E 024°58'0 0.0
2017-Nov-16 19:29N 59°30' E 024°58'0 0.0
2017-Nov-16 18:59N 59°30' E 024°58'0 0.0
2017-Nov-16 18:29N 59°30' E 024°58'0 0.0
2017-Nov-16 17:59N 59°30' E 024°58'0 0.0
2017-Nov-16 17:29N 59°30' E 024°58'0 0.0
2017-Nov-16 16:59N 59°30' E 024°58'0 0.0
2017-Nov-16 16:29N 59°30' E 024°58'0 0.0
2017-Nov-16 15:59N 59°30' E 024°58'0 0.0
2017-Nov-16 15:29N 59°30' E 024°58'0 0.0
2017-Nov-16 14:59N 59°30' E 024°58'0 0.0
2017-Nov-16 14:29N 59°30' E 024°58'0 0.0
2017-Nov-16 13:59N 59°30' E 024°58'0 0.0
2017-Nov-16 13:29N 59°30' E 024°58'0 0.0
2017-Nov-16 12:59N 59°30' E 024°58'0 0.0
2017-Nov-16 12:29N 59°30' E 024°58'0 0.0
2017-Nov-16 11:59N 59°30' E 024°58'0 0.0
2017-Nov-16 11:29N 59°30' E 024°58'0 0.0
2017-Nov-16 10:59N 59°30' E 024°58'0 0.0
2017-Nov-16 10:29N 59°30' E 024°58'0 0.0
2017-Nov-16 09:59N 59°30' E 024°58'0 0.0
2017-Nov-16 09:29N 59°30' E 024°58'0 0.0
2017-Nov-16 08:59N 59°30' E 024°58'0 0.0
2017-Nov-16 08:29N 59°30' E 024°58'0 0.0
2017-Nov-16 07:59N 59°30' E 024°58'0 0.0
2017-Nov-16 07:29N 59°30' E 024°58'0 0.0
2017-Nov-16 06:59N 59°30' E 024°58'0 0.0
2017-Nov-16 06:29N 59°30' E 024°58'0 0.0
2017-Nov-16 05:59N 59°30' E 024°58'0 0.0
2017-Nov-16 05:29N 59°30' E 024°58'0 0.0
2017-Nov-16 04:59N 59°30' E 024°58'0 0.0
2017-Nov-16 04:29N 59°30' E 024°58'0 0.0
2017-Nov-16 03:59N 59°30' E 024°58'0 0.0
2017-Nov-16 03:29N 59°30' E 024°58'0 0.0
2017-Nov-16 02:59N 59°30' E 024°58'0 0.0
2017-Nov-16 02:29N 59°30' E 024°58'0 0.0
2017-Nov-16 01:59N 59°30' E 024°58'0 0.0
2017-Nov-16 01:29N 59°30' E 024°58'0 0.0
2017-Nov-16 00:59N 59°30' E 024°58'0 0.0
2017-Nov-16 00:29N 59°30' E 024°58'0 0.0
2017-Nov-15 23:59N 59°30' E 024°58'0 0.0
2017-Nov-15 23:29N 59°30' E 024°58'0 0.0
2017-Nov-15 22:59N 59°30' E 024°58'0 0.0
2017-Nov-15 22:29N 59°30' E 024°58'0 0.0
2017-Nov-15 21:59N 59°30' E 024°58'0 0.0
2017-Nov-15 21:29N 59°30' E 024°58'0 0.0
2017-Nov-15 20:59N 59°30' E 024°58'0 0.0
2017-Nov-15 20:29N 59°30' E 024°58'0 0.0
2017-Nov-15 19:59N 59°30' E 024°58'0 0.0
2017-Nov-15 19:29N 59°30' E 024°58'0 0.0
2017-Nov-15 18:59N 59°30' E 024°58'0 0.0
2017-Nov-15 18:29N 59°30' E 024°58'0 0.0
2017-Nov-15 17:59N 59°30' E 024°58'0 0.0
2017-Nov-15 17:29N 59°30' E 024°58'0 0.0
2017-Nov-15 16:59N 59°30' E 024°58'0 0.0
2017-Nov-15 16:29N 59°30' E 024°58'0 0.0
2017-Nov-15 15:59N 59°30' E 024°58'0 0.0
2017-Nov-15 15:29N 59°30' E 024°58'0 0.0
2017-Nov-15 14:59N 59°30' E 024°58'0 0.0
2017-Nov-15 14:29N 59°30' E 024°58'0 0.0
2017-Nov-15 13:59N 59°30' E 024°58'0 0.0
2017-Nov-15 13:29N 59°30' E 024°58'0 0.0
2017-Nov-15 12:59N 59°30' E 024°58'0 0.0
2017-Nov-15 12:29N 59°30' E 024°58'0 0.0
2017-Nov-15 11:59N 59°30' E 024°58'0 0.0
2017-Nov-15 11:29N 59°30' E 024°58'0 0.0
2017-Nov-15 10:59N 59°30' E 024°58'0 0.0
2017-Nov-15 10:29N 59°30' E 024°58'0 0.0
2017-Nov-15 09:59N 59°30' E 024°58'0 0.0
2017-Nov-15 09:29N 59°30' E 024°58'0 0.0
2017-Nov-15 08:59N 59°30' E 024°58'0 0.0
2017-Nov-15 08:29N 59°30' E 024°58'0 0.0
2017-Nov-15 07:59N 59°30' E 024°58'0 0.0
2017-Nov-15 07:29N 59°30' E 024°58'0 0.0
2017-Nov-15 06:59N 59°30' E 024°58'0 0.0
2017-Nov-15 06:29N 59°30' E 024°58'0 0.0
2017-Nov-15 05:59N 59°30' E 024°58'0 0.0
2017-Nov-15 05:29N 59°30' E 024°58'0 0.0
2017-Nov-15 04:59N 59°30' E 024°58'0 0.0
2017-Nov-15 04:29N 59°30' E 024°58'0 0.0
2017-Nov-15 03:59N 59°30' E 024°58'0 0.0
2017-Nov-15 03:29N 59°30' E 024°58'0 0.0
2017-Nov-15 02:59N 59°30' E 024°58'0 0.0
2017-Nov-15 02:29N 59°30' E 024°58'0 0.0
2017-Nov-15 01:56N 59°30' E 024°58'0 0.0
2017-Nov-15 01:29N 59°30' E 024°58'0 0.0
2017-Nov-15 00:59N 59°30' E 024°58'0 0.0
2017-Nov-15 00:29N 59°30' E 024°58'0 0.0
2017-Nov-14 23:59N 59°30' E 024°58'0 0.0
2017-Nov-14 23:29N 59°30' E 024°58'0 0.0
2017-Nov-14 22:59N 59°30' E 024°58'0 0.0
2017-Nov-14 22:29N 59°30' E 024°58'0 0.0
2017-Nov-14 21:59N 59°30' E 024°58'0 0.0
2017-Nov-14 21:29N 59°30' E 024°58'0 0.0
2017-Nov-14 20:59N 59°30' E 024°58'0 0.0
2017-Nov-14 20:29N 59°30' E 024°58'0 0.0
2017-Nov-14 19:59N 59°30' E 024°58'0 0.0
2017-Nov-14 19:29N 59°30' E 024°58'0 0.0
2017-Nov-14 18:59N 59°30' E 024°58'0 0.0
2017-Nov-14 18:29N 59°30' E 024°58'0 0.0
2017-Nov-14 17:59N 59°30' E 024°58'0 0.0
2017-Nov-14 17:29N 59°30' E 024°58'0 0.0
2017-Nov-14 16:59N 59°30' E 024°58'0 0.0
2017-Nov-14 16:29N 59°30' E 024°58'0 0.0
2017-Nov-14 15:59N 59°30' E 024°58'0 0.0
2017-Nov-14 15:29N 59°30' E 024°58'0 0.0
2017-Nov-14 14:59N 59°30' E 024°58'0 0.0
2017-Nov-14 14:29N 59°30' E 024°58'0 0.0
2017-Nov-14 13:59N 59°30' E 024°58'0 0.9
2017-Nov-14 13:31N 59°30' E 024°58'4 7.5
2017-Nov-14 13:00N 59°33' E 024°55'510.2
2017-Nov-14 12:31N 59°37' E 024°48'510.3
2017-Nov-14 12:01N 59°38' E 024°38'510.5
2017-Nov-14 11:31N 59°39' E 024°28'610.9
2017-Nov-14 11:00N 59°40' E 024°17'610.8
2017-Nov-14 10:27N 59°40' E 024°05'511.2
2017-Nov-14 09:58N 59°39' E 023°55'511.2
2017-Nov-14 09:31N 59°37' E 023°45'610.9
2017-Nov-14 09:00N 59°35' E 023°35'4 8.1
2017-Nov-14 08:29N 59°33' E 023°28'510.3
2017-Nov-14 08:01N 59°32' E 023°19'35912.0
2017-Nov-13 02:00N 55°31' E 015°03'712.0
2017-Nov-13 01:26N 55°28' E 014°52'512.1
2017-Nov-13 01:00N 55°26' E 014°44'611.9
2017-Nov-13 00:30N 55°22' E 014°35'612.1
2017-Nov-13 00:00N 55°18' E 014°29'611.9
2017-Nov-12 23:31N 55°13' E 014°23'612.1
2017-Nov-12 23:01N 55°08' E 014°17'612.3
2017-Nov-12 22:30N 55°03' E 014°10'611.8
2017-Nov-12 22:00N 54°60' E 014°01'812.4
2017-Nov-12 21:21N 54°57' E 013°48'3912.3
2017-Nov-12 18:11N 54°44' E 012°44'212.5
2017-Nov-12 18:00N 54°43' E 012°41'612.4
2017-Nov-12 17:30N 54°40' E 012°32'912.1
2017-Nov-12 16:47N 54°35' E 012°20'311.8
2017-Nov-12 16:30N 54°32' E 012°17'1710.7
2017-Nov-12 14:57N 54°25' E 011°51'512.6
2017-Nov-12 14:31N 54°26' E 011°41'713.3
2017-Nov-12 14:01N 54°29' E 011°31'713.5
2017-Nov-12 13:31N 54°32' E 011°21'713.5
2017-Nov-12 13:01N 54°35' E 011°10'713.3
2017-Nov-12 12:30N 54°39' E 011°01'612.4
2017-Nov-12 12:01N 54°42' E 010°52'713.1
2017-Nov-12 11:31N 54°49' E 010°51'713.1
2017-Nov-12 11:00N 54°55' E 010°54'612.7
2017-Nov-12 10:31N 54°60' E 011°01'612.6
2017-Nov-12 10:01N 55°06' E 011°03'612.6
2017-Nov-12 09:30N 55°12' E 011°06'713.1
2017-Nov-12 08:57N 55°19' E 011°02'10711.2
2017-Nov-11 23:25N 57°04' E 011°40'512.7
2017-Nov-11 23:00N 57°09' E 011°36'612.9
2017-Nov-11 22:30N 57°15' E 011°33'612.5
2017-Nov-11 22:00N 57°21' E 011°29'612.9
2017-Nov-11 21:31N 57°26' E 011°21'612.7
2017-Nov-11 21:00N 57°29' E 011°12'612.7
2017-Nov-11 20:31N 57°32' E 011°01'612.9
2017-Nov-11 20:01N 57°35' E 010°50'611.3
2017-Nov-11 19:30N 57°39' E 010°43'2 4.5
2017-Nov-11 18:58N 57°41' E 010°40'0 0.1
2017-Nov-11 18:28N 57°41' E 010°40'0 0.0
2017-Nov-11 17:55N 57°41' E 010°40'0 0.0
2017-Nov-11 17:28N 57°41' E 010°40'0 0.0
2017-Nov-11 16:52N 57°41' E 010°40'0 0.0
2017-Nov-11 16:25N 57°41' E 010°40'0 0.0
2017-Nov-11 15:55N 57°41' E 010°40'0 0.1
2017-Nov-11 15:28N 57°41' E 010°40'1 1.9
2017-Nov-11 15:00N 57°42' E 010°41'2 4.9
2017-Nov-11 14:30N 57°44' E 010°44'4 8.5
2017-Nov-11 14:00N 57°48' E 010°42'10012.7
2017-Nov-11 06:09N 57°42' E 007°35'211.5
2017-Nov-11 06:00N 57°42' E 007°32'611.4
2017-Nov-11 05:30N 57°42' E 007°21'611.5
2017-Nov-11 05:00N 57°42' E 007°10'611.7
2017-Nov-11 04:29N 57°43' E 006°59'611.8
2017-Nov-11 03:59N 57°43' E 006°48'611.3
2017-Nov-11 03:30N 57°43' E 006°38'611.8
2017-Nov-11 03:00N 57°45' E 006°27'612.0
2017-Nov-11 02:30N 57°46' E 006°16'612.4
2017-Nov-11 02:00N 57°48' E 006°05'612.4
2017-Nov-11 01:29N 57°51' E 005°54'27311.3
2017-Nov-10 01:19N 58°42' W 002°36'412.0
2017-Nov-10 01:00N 58°43' W 002°43'611.6
2017-Nov-10 00:30N 58°43' W 002°54'  
Track history (hours):
 
Tides and Currents Weather Stations Pressure Air Temp Water Temp Dewpoint Dewpoint Depression Visibility Wind Speed Wind Dir Waves Ship Positions

Cetus Star

Last reported at 2017-Nov-20 00:30 UTC. Time now 2017-Nov-23 18:51 UTC.
Position N 56°00' E 016°22'.

Length 175 m; draft 9.7 m.

Type: Cargo ship. MMSI: 215720000.

Date/timePositionNaut miles runAvg speedWind from/ knotsBaromVisibWave heightAir tempDewpointWater temp
2017-Nov-20 00:30N 56°00' E 016°22'612.1
2017-Nov-20 00:00N 56°03' E 016°31'612.0
2017-Nov-19 23:30N 56°06' E 016°40'611.9
2017-Nov-19 23:00N 56°10' E 016°49'28811.2
2017-Nov-18 21:14N 59°36' E 023°06'3 9.9
2017-Nov-18 20:57N 59°37' E 023°11'5 9.7
2017-Nov-18 20:27N 59°38' E 023°20'4 9.6
2017-Nov-18 20:00N 59°39' E 023°29'5 9.8
2017-Nov-18 19:30N 59°40' E 023°38'5 9.9
2017-Nov-18 19:00N 59°41' E 023°48'510.0
2017-Nov-18 18:30N 59°42' E 023°57'610.0
2017-Nov-18 17:56N 59°44' E 024°08'511.6
2017-Nov-18 17:30N 59°45' E 024°18'510.1
2017-Nov-18 17:00N 59°46' E 024°28'4 8.6
2017-Nov-18 16:30N 59°44' E 024°35'611.5
2017-Nov-18 16:01N 59°40' E 024°44'510.3
2017-Nov-18 15:30N 59°36' E 024°51'5 9.3
2017-Nov-18 15:00N 59°33' E 024°57'3 5.7
2017-Nov-18 14:30N 59°30' E 024°58'0 0.0
2017-Nov-18 13:59N 59°30' E 024°58'0 0.0
2017-Nov-18 13:29N 59°30' E 024°58'0 0.0
2017-Nov-18 12:59N 59°30' E 024°58'0 0.0
2017-Nov-18 12:28N 59°30' E 024°58'0 0.0
2017-Nov-18 12:00N 59°30' E 024°58'0 0.0
2017-Nov-18 11:29N 59°30' E 024°58'0 0.0
2017-Nov-18 10:59N 59°30' E 024°58'0 0.0
2017-Nov-18 10:31N 59°30' E 024°58'0 0.0
2017-Nov-18 09:59N 59°30' E 024°58'0 0.0
2017-Nov-18 09:29N 59°30' E 024°58'0 0.0
2017-Nov-18 08:59N 59°30' E 024°58'0 0.0
2017-Nov-18 08:29N 59°30' E 024°58'0 0.0
2017-Nov-18 07:59N 59°30' E 024°58'0 0.0
2017-Nov-18 07:29N 59°30' E 024°58'0 0.0
2017-Nov-18 06:59N 59°30' E 024°58'0 0.0
2017-Nov-18 06:29N 59°30' E 024°58'0 0.0
2017-Nov-18 05:59N 59°30' E 024°58'0 0.0
2017-Nov-18 05:29N 59°30' E 024°58'0 0.0
2017-Nov-18 04:59N 59°30' E 024°58'0 0.0
2017-Nov-18 04:29N 59°30' E 024°58'0 0.0
2017-Nov-18 03:59N 59°30' E 024°58'0 0.0
2017-Nov-18 03:29N 59°30' E 024°58'0 0.0
2017-Nov-18 02:59N 59°30' E 024°58'0 0.0
2017-Nov-18 02:29N 59°30' E 024°58'0 0.0
2017-Nov-18 01:59N 59°30' E 024°58'0 0.0
2017-Nov-18 01:29N 59°30' E 024°58'0 0.0
2017-Nov-18 00:59N 59°30' E 024°58'0 0.0
2017-Nov-18 00:29N 59°30' E 024°58'0 0.0
2017-Nov-17 23:59N 59°30' E 024°58'0 0.0
2017-Nov-17 23:29N 59°30' E 024°58'0 0.0
2017-Nov-17 22:59N 59°30' E 024°58'0 0.0
2017-Nov-17 22:29N 59°30' E 024°58'0 0.0
2017-Nov-17 21:59N 59°30' E 024°58'0 0.0
2017-Nov-17 21:30N 59°30' E 024°58'0 0.0
2017-Nov-17 20:59N 59°30' E 024°58'0 0.0
2017-Nov-17 20:29N 59°30' E 024°58'0 0.0
2017-Nov-17 19:59N 59°30' E 024°58'0 0.0
2017-Nov-17 19:29N 59°30' E 024°58'0 0.0
2017-Nov-17 19:00N 59°30' E 024°58'0 0.0
2017-Nov-17 18:29N 59°30' E 024°58'0 0.0
2017-Nov-17 17:59N 59°30' E 024°58'0 0.0
2017-Nov-17 17:29N 59°30' E 024°58'0 0.0
2017-Nov-17 16:59N 59°30' E 024°58'0 0.0
2017-Nov-17 16:29N 59°30' E 024°58'0 0.0
2017-Nov-17 15:59N 59°30' E 024°58'0 0.0
2017-Nov-17 15:29N 59°30' E 024°58'0 0.0
2017-Nov-17 14:59N 59°30' E 024°58'0 0.0
2017-Nov-17 14:29N 59°30' E 024°58'0 0.0
2017-Nov-17 13:59N 59°30' E 024°58'0 0.0
2017-Nov-17 13:29N 59°30' E 024°58'0 0.0
2017-Nov-17 12:59N 59°30' E 024°58'0 0.0
2017-Nov-17 12:29N 59°30' E 024°58'0 0.0
2017-Nov-17 11:59N 59°30' E 024°58'0 0.0
2017-Nov-17 11:29N 59°30' E 024°58'0 0.0
2017-Nov-17 10:59N 59°30' E 024°58'0 0.0
2017-Nov-17 10:29N 59°30' E 024°58'0 0.0
2017-Nov-17 09:59N 59°30' E 024°58'0 0.0
2017-Nov-17 09:29N 59°30' E 024°58'0 0.0
2017-Nov-17 08:59N 59°30' E 024°58'0 0.0
2017-Nov-17 08:29N 59°30' E 024°58'0 0.0
2017-Nov-17 07:59N 59°30' E 024°58'0 0.0
2017-Nov-17 07:29N 59°30' E 024°58'0 0.0
2017-Nov-17 06:59N 59°30' E 024°58'0 0.0
2017-Nov-17 06:29N 59°30' E 024°58'0 0.0
2017-Nov-17 05:59N 59°30' E 024°58'0 0.0
2017-Nov-17 05:29N 59°30' E 024°58'0 0.0
2017-Nov-17 04:59N 59°30' E 024°58'0 0.0
2017-Nov-17 04:29N 59°30' E 024°58'0 0.0
2017-Nov-17 03:59N 59°30' E 024°58'0 0.0
2017-Nov-17 03:29N 59°30' E 024°58'0 0.0
2017-Nov-17 02:59N 59°30' E 024°58'0 0.0
2017-Nov-17 02:29N 59°30' E 024°58'0 0.0
2017-Nov-17 01:59N 59°30' E 024°58'0 0.0
2017-Nov-17 01:29N 59°30' E 024°58'0 0.0
2017-Nov-17 00:59N 59°30' E 024°58'0 0.0
2017-Nov-17 00:29N 59°30' E 024°58'0 0.0
2017-Nov-16 23:59N 59°30' E 024°58'0 0.0
2017-Nov-16 23:29N 59°30' E 024°58'0 0.0
2017-Nov-16 22:59N 59°30' E 024°58'0 0.0
2017-Nov-16 22:29N 59°30' E 024°58'0 0.0
2017-Nov-16 21:59N 59°30' E 024°58'0 0.0
2017-Nov-16 21:29N 59°30' E 024°58'0 0.0
2017-Nov-16 20:59N 59°30' E 024°58'0 0.0
2017-Nov-16 20:29N 59°30' E 024°58'0 0.0
2017-Nov-16 19:59N 59°30' E 024°58'0 0.0
2017-Nov-16 19:29N 59°30' E 024°58'0 0.0
2017-Nov-16 18:59N 59°30' E 024°58'0 0.0
2017-Nov-16 18:29N 59°30' E 024°58'0 0.0
2017-Nov-16 17:59N 59°30' E 024°58'0 0.0
2017-Nov-16 17:29N 59°30' E 024°58'0 0.0
2017-Nov-16 16:59N 59°30' E 024°58'0 0.0
2017-Nov-16 16:29N 59°30' E 024°58'0 0.0
2017-Nov-16 15:59N 59°30' E 024°58'0 0.0
2017-Nov-16 15:29N 59°30' E 024°58'0 0.0
2017-Nov-16 14:59N 59°30' E 024°58'0 0.0
2017-Nov-16 14:29N 59°30' E 024°58'0 0.0
2017-Nov-16 13:59N 59°30' E 024°58'0 0.0
2017-Nov-16 13:29N 59°30' E 024°58'0 0.0
2017-Nov-16 12:59N 59°30' E 024°58'0 0.0
2017-Nov-16 12:29N 59°30' E 024°58'0 0.0
2017-Nov-16 11:59N 59°30' E 024°58'0 0.0
2017-Nov-16 11:29N 59°30' E 024°58'0 0.0
2017-Nov-16 10:59N 59°30' E 024°58'0 0.0
2017-Nov-16 10:29N 59°30' E 024°58'0 0.0
2017-Nov-16 09:59N 59°30' E 024°58'0 0.0
2017-Nov-16 09:29N 59°30' E 024°58'0 0.0
2017-Nov-16 08:59N 59°30' E 024°58'0 0.0
2017-Nov-16 08:29N 59°30' E 024°58'0 0.0
2017-Nov-16 07:59N 59°30' E 024°58'0 0.0
2017-Nov-16 07:29N 59°30' E 024°58'0 0.0
2017-Nov-16 06:59N 59°30' E 024°58'0 0.0
2017-Nov-16 06:29N 59°30' E 024°58'0 0.0
2017-Nov-16 05:59N 59°30' E 024°58'0 0.0
2017-Nov-16 05:29N 59°30' E 024°58'0 0.0
2017-Nov-16 04:59N 59°30' E 024°58'0 0.0
2017-Nov-16 04:29N 59°30' E 024°58'0 0.0
2017-Nov-16 03:59N 59°30' E 024°58'0 0.0
2017-Nov-16 03:29N 59°30' E 024°58'0 0.0
2017-Nov-16 02:59N 59°30' E 024°58'0 0.0
2017-Nov-16 02:29N 59°30' E 024°58'0 0.0
2017-Nov-16 01:59N 59°30' E 024°58'0 0.0
2017-Nov-16 01:29N 59°30' E 024°58'0 0.0
2017-Nov-16 00:59N 59°30' E 024°58'0 0.0
2017-Nov-16 00:29N 59°30' E 024°58'0 0.0
2017-Nov-15 23:59N 59°30' E 024°58'0 0.0
2017-Nov-15 23:29N 59°30' E 024°58'0 0.0
2017-Nov-15 22:59N 59°30' E 024°58'0 0.0
2017-Nov-15 22:29N 59°30' E 024°58'0 0.0
2017-Nov-15 21:59N 59°30' E 024°58'0 0.0
2017-Nov-15 21:29N 59°30' E 024°58'0 0.0
2017-Nov-15 20:59N 59°30' E 024°58'0 0.0
2017-Nov-15 20:29N 59°30' E 024°58'0 0.0
2017-Nov-15 19:59N 59°30' E 024°58'0 0.0
2017-Nov-15 19:29N 59°30' E 024°58'0 0.0
2017-Nov-15 18:59N 59°30' E 024°58'0 0.0
2017-Nov-15 18:29N 59°30' E 024°58'0 0.0
2017-Nov-15 17:59N 59°30' E 024°58'0 0.0
2017-Nov-15 17:29N 59°30' E 024°58'0 0.0
2017-Nov-15 16:59N 59°30' E 024°58'0 0.0
2017-Nov-15 16:29N 59°30' E 024°58'0 0.0
2017-Nov-15 15:59N 59°30' E 024°58'0 0.0
2017-Nov-15 15:29N 59°30' E 024°58'0 0.0
2017-Nov-15 14:59N 59°30' E 024°58'0 0.0
2017-Nov-15 14:29N 59°30' E 024°58'0 0.0
2017-Nov-15 13:59N 59°30' E 024°58'0 0.0
2017-Nov-15 13:29N 59°30' E 024°58'0 0.0
2017-Nov-15 12:59N 59°30' E 024°58'0 0.0
2017-Nov-15 12:29N 59°30' E 024°58'0 0.0
2017-Nov-15 11:59N 59°30' E 024°58'0 0.0
2017-Nov-15 11:29N 59°30' E 024°58'0 0.0
2017-Nov-15 10:59N 59°30' E 024°58'0 0.0
2017-Nov-15 10:29N 59°30' E 024°58'0 0.0
2017-Nov-15 09:59N 59°30' E 024°58'0 0.0
2017-Nov-15 09:29N 59°30' E 024°58'0 0.0
2017-Nov-15 08:59N 59°30' E 024°58'0 0.0
2017-Nov-15 08:29N 59°30' E 024°58'0 0.0
2017-Nov-15 07:59N 59°30' E 024°58'0 0.0
2017-Nov-15 07:29N 59°30' E 024°58'0 0.0
2017-Nov-15 06:59N 59°30' E 024°58'0 0.0
2017-Nov-15 06:29N 59°30' E 024°58'0 0.0
2017-Nov-15 05:59N 59°30' E 024°58'0 0.0
2017-Nov-15 05:29N 59°30' E 024°58'0 0.0
2017-Nov-15 04:59N 59°30' E 024°58'0 0.0
2017-Nov-15 04:29N 59°30' E 024°58'0 0.0
2017-Nov-15 03:59N 59°30' E 024°58'0 0.0
2017-Nov-15 03:29N 59°30' E 024°58'0 0.0
2017-Nov-15 02:59N 59°30' E 024°58'0 0.0
2017-Nov-15 02:29N 59°30' E 024°58'0 0.0
2017-Nov-15 01:56N 59°30' E 024°58'0 0.0
2017-Nov-15 01:29N 59°30' E 024°58'0 0.0
2017-Nov-15 00:59N 59°30' E 024°58'0 0.0
2017-Nov-15 00:29N 59°30' E 024°58'0 0.0
2017-Nov-14 23:59N 59°30' E 024°58'0 0.0
2017-Nov-14 23:29N 59°30' E 024°58'0 0.0
2017-Nov-14 22:59N 59°30' E 024°58'0 0.0
2017-Nov-14 22:29N 59°30' E 024°58'0 0.0
2017-Nov-14 21:59N 59°30' E 024°58'0 0.0
2017-Nov-14 21:29N 59°30' E 024°58'0 0.0
2017-Nov-14 20:59N 59°30' E 024°58'0 0.0
2017-Nov-14 20:29N 59°30' E 024°58'0 0.0
2017-Nov-14 19:59N 59°30' E 024°58'0 0.0
2017-Nov-14 19:29N 59°30' E 024°58'0 0.0
2017-Nov-14 18:59N 59°30' E 024°58'0 0.0
2017-Nov-14 18:29N 59°30' E 024°58'0 0.0
2017-Nov-14 17:59N 59°30' E 024°58'0 0.0
2017-Nov-14 17:29N 59°30' E 024°58'0 0.0
2017-Nov-14 16:59N 59°30' E 024°58'0 0.0
2017-Nov-14 16:29N 59°30' E 024°58'0 0.0
2017-Nov-14 15:59N 59°30' E 024°58'0 0.0
2017-Nov-14 15:29N 59°30' E 024°58'0 0.0
2017-Nov-14 14:59N 59°30' E 024°58'0 0.0
2017-Nov-14 14:29N 59°30' E 024°58'0 0.0
2017-Nov-14 13:59N 59°30' E 024°58'0 0.9
2017-Nov-14 13:31N 59°30' E 024°58'4 7.5
2017-Nov-14 13:00N 59°33' E 024°55'510.2
2017-Nov-14 12:31N 59°37' E 024°48'510.3
2017-Nov-14 12:01N 59°38' E 024°38'510.5
2017-Nov-14 11:31N 59°39' E 024°28'610.9
2017-Nov-14 11:00N 59°40' E 024°17'610.8
2017-Nov-14 10:27N 59°40' E 024°05'511.2
2017-Nov-14 09:58N 59°39' E 023°55'511.2
2017-Nov-14 09:31N 59°37' E 023°45'610.9
2017-Nov-14 09:00N 59°35' E 023°35'4 8.1
2017-Nov-14 08:29N 59°33' E 023°28'510.3
2017-Nov-14 08:01N 59°32' E 023°19'35912.0
2017-Nov-13 02:00N 55°31' E 015°03'712.0
2017-Nov-13 01:26N 55°28' E 014°52'512.1
2017-Nov-13 01:00N 55°26' E 014°44'611.9
2017-Nov-13 00:30N 55°22' E 014°35'612.1
2017-Nov-13 00:00N 55°18' E 014°29'611.9
2017-Nov-12 23:31N 55°13' E 014°23'612.1
2017-Nov-12 23:01N 55°08' E 014°17'612.3
2017-Nov-12 22:30N 55°03' E 014°10'611.8
2017-Nov-12 22:00N 54°60' E 014°01'812.4
2017-Nov-12 21:21N 54°57' E 013°48'3912.3
2017-Nov-12 18:11N 54°44' E 012°44'212.5
2017-Nov-12 18:00N 54°43' E 012°41'612.4
2017-Nov-12 17:30N 54°40' E 012°32'912.1
2017-Nov-12 16:47N 54°35' E 012°20'311.8
2017-Nov-12 16:30N 54°32' E 012°17'1710.7
2017-Nov-12 14:57N 54°25' E 011°51'512.6
2017-Nov-12 14:31N 54°26' E 011°41'713.3
2017-Nov-12 14:01N 54°29' E 011°31'713.5
2017-Nov-12 13:31N 54°32' E 011°21'713.5
2017-Nov-12 13:01N 54°35' E 011°10'713.3
2017-Nov-12 12:30N 54°39' E 011°01'612.4
2017-Nov-12 12:01N 54°42' E 010°52'713.1
2017-Nov-12 11:31N 54°49' E 010°51'713.1
2017-Nov-12 11:00N 54°55' E 010°54'612.7
2017-Nov-12 10:31N 54°60' E 011°01'612.6
2017-Nov-12 10:01N 55°06' E 011°03'612.6
2017-Nov-12 09:30N 55°12' E 011°06'713.1
2017-Nov-12 08:57N 55°19' E 011°02'10711.2
2017-Nov-11 23:25N 57°04' E 011°40'512.7
2017-Nov-11 23:00N 57°09' E 011°36'612.9
2017-Nov-11 22:30N 57°15' E 011°33'612.5
2017-Nov-11 22:00N 57°21' E 011°29'612.9
2017-Nov-11 21:31N 57°26' E 011°21'612.7
2017-Nov-11 21:00N 57°29' E 011°12'612.7
2017-Nov-11 20:31N 57°32' E 011°01'612.9
2017-Nov-11 20:01N 57°35' E 010°50'611.3
2017-Nov-11 19:30N 57°39' E 010°43'2 4.5
2017-Nov-11 18:58N 57°41' E 010°40'0 0.1
2017-Nov-11 18:28N 57°41' E 010°40'0 0.0
2017-Nov-11 17:55N 57°41' E 010°40'0 0.0
2017-Nov-11 17:28N 57°41' E 010°40'0 0.0
2017-Nov-11 16:52N 57°41' E 010°40'0 0.0
2017-Nov-11 16:25N 57°41' E 010°40'0 0.0
2017-Nov-11 15:55N 57°41' E 010°40'0 0.1
2017-Nov-11 15:28N 57°41' E 010°40'1 1.9
2017-Nov-11 15:00N 57°42' E 010°41'2 4.9
2017-Nov-11 14:30N 57°44' E 010°44'4 8.5
2017-Nov-11 14:00N 57°48' E 010°42'10012.7
2017-Nov-11 06:09N 57°42' E 007°35'211.5
2017-Nov-11 06:00N 57°42' E 007°32'611.4
2017-Nov-11 05:30N 57°42' E 007°21'611.5
2017-Nov-11 05:00N 57°42' E 007°10'611.7
2017-Nov-11 04:29N 57°43' E 006°59'611.8
2017-Nov-11 03:59N 57°43' E 006°48'611.3
2017-Nov-11 03:30N 57°43' E 006°38'611.8
2017-Nov-11 03:00N 57°45' E 006°27'612.0
2017-Nov-11 02:30N 57°46' E 006°16'612.4
2017-Nov-11 02:00N 57°48' E 006°05'612.4
2017-Nov-11 01:29N 57°51' E 005°54'27311.3
2017-Nov-10 01:19N 58°42' W 002°36'412.0
2017-Nov-10 01:00N 58°43' W 002°43'611.6
2017-Nov-10 00:30N 58°43' W 002°54'  

Dump ship's entire track history